Time;durP1;ratioP1;P1;durP2;ratioP2;P2;SDS_P1;SDS_P2;PMS_P1;PMS_P2;Temp;Humidity;BMP_temperature;BMP_pressure;BME280_temperature;BME280_humidity;BME280_pressure;Samples;Min_cycle;Max_cycle;Signal;HPM_P1;HPM_P2
2023/06/14 00:02:22;;;;;;;59.17;17.95;;;;;;;;;;6259592;28;20104;-54
2023/06/14 00:05:24;;;;;;;52.53;18.70;;;;;;;;;;6255624;28;20050;-57
2023/06/14 00:08:25;;;;;;;51.10;16.75;;;;;;;;;;6257057;28;20110;-57
2023/06/14 00:11:26;;;;;;;55.17;17.25;;;;;;;;;;6260293;28;20461;-55
2023/06/14 00:14:27;;;;;;;53.05;17.77;;;;;;;;;;6257453;28;20110;-56
2023/06/14 00:17:31;;;;;;;43.67;15.80;;;;;;;;;;6260709;28;20049;-56
2023/06/14 00:20:33;;;;;;;50.13;16.40;;;;;;;;;;6257420;28;20049;-57
2023/06/14 00:23:33;;;;;;;55.55;16.95;;;;;;;;;;6257184;28;20053;-55
2023/06/14 00:26:34;;;;;;;47.95;17.30;;;;;;;;;;6256119;28;20463;-56
2023/06/14 00:29:35;;;;;;;50.25;16.60;;;;;;;;;;6254473;28;20107;-58
2023/06/14 00:32:35;;;;;;;47.85;16.80;;;;;;;;;;6259833;28;20504;-56
2023/06/14 00:35:36;;;;;;;51.97;17.58;;;;;;;;;;6258650;28;20045;-55
2023/06/14 00:38:37;;;;;;;57.35;18.42;;;;;;;;;;6258841;28;20041;-58
2023/06/14 00:41:37;;;;;;;57.20;18.70;;;;;;;;;;6258577;28;20049;-58
2023/06/14 00:44:38;;;;;;;46.45;16.85;;;;;;;;;;6255074;28;20137;-55
2023/06/14 00:47:41;;;;;;;52.45;17.95;;;;;;;;;;6262692;28;20052;-57
2023/06/14 00:50:45;;;;;;;46.45;16.48;;;;;;;;;;6258171;28;20812;-56
2023/06/14 00:53:46;;;;;;;41.28;15.30;;;;;;;;;;6259139;28;20083;-57
2023/06/14 00:56:47;;;;;;;45.70;16.17;;;;;;;;;;6256797;28;20450;-56
2023/06/14 00:59:48;;;;;;;43.47;16.50;;;;;;;;;;6257950;28;20037;-58
2023/06/14 01:02:49;;;;;;;40.07;14.80;;;;;;;;;;6255646;28;20187;-57
2023/06/14 01:06:02;;;;;;;42.45;15.48;;;;;;;;;;6254085;28;20381;-58
2023/06/14 01:09:17;;;;;;;39.40;15.55;;;;;;;;;;6254122;28;20041;-58
2023/06/14 01:12:38;;;;;;;39.50;15.90;;;;;;;;;;6255975;28;20098;-56
2023/06/14 01:15:42;;;;;;;38.78;14.77;;;;;;;;;;6255092;28;20094;-58
2023/06/14 01:18:47;;;;;;;39.78;15.00;;;;;;;;;;6254089;28;20058;-58
2023/06/14 01:21:50;;;;;;;30.38;12.70;;;;;;;;;;6254786;28;20044;-56
2023/06/14 01:24:55;;;;;;;35.03;14.02;;;;;;;;;;6255382;28;20080;-57
2023/06/14 01:28:01;;;;;;;34.78;14.05;;;;;;;;;;6253244;28;20136;-56
2023/06/14 01:31:04;;;;;;;36.95;14.02;;;;;;;;;;6261719;28;20052;-58
2023/06/14 01:34:05;;;;;;;37.20;14.30;;;;;;;;;;6257094;28;20049;-57
2023/06/14 01:37:06;;;;;;;33.88;14.25;;;;;;;;;;6255105;28;20124;-56
2023/06/14 01:40:10;;;;;;;36.88;15.10;;;;;;;;;;6253679;28;20033;-56
2023/06/14 01:43:13;;;;;;;33.88;13.57;;;;;;;;;;6254646;28;20056;-57
2023/06/14 01:46:15;;;;;;;37.55;14.07;;;;;;;;;;6254953;28;20055;-58
2023/06/14 01:49:15;;;;;;;32.53;12.75;;;;;;;;;;6259886;28;20045;-55
2023/06/14 01:52:19;;;;;;;30.10;12.88;;;;;;;;;;6259431;28;20546;-56
2023/06/14 01:55:21;;;;;;;31.10;13.07;;;;;;;;;;6261759;28;20095;-57
2023/06/14 01:58:23;;;;;;;32.15;12.20;;;;;;;;;;6258392;28;20094;-55
2023/06/14 02:01:24;;;;;;;28.27;12.32;;;;;;;;;;6256861;28;20036;-56
2023/06/14 02:04:25;;;;;;;31.88;13.52;;;;;;;;;;6257504;28;20915;-57
2023/06/14 02:07:25;;;;;;;34.03;13.32;;;;;;;;;;6258029;28;20064;-56
2023/06/14 02:10:26;;;;;;;32.92;14.20;;;;;;;;;;6253429;28;20044;-56
2023/06/14 02:13:27;;;;;;;31.38;12.68;;;;;;;;;;6255722;28;20048;-54
2023/06/14 02:16:29;;;;;;;31.52;13.15;;;;;;;;;;6253442;28;20048;-55
2023/06/14 02:19:30;;;;;;;27.83;12.15;;;;;;;;;;6257674;28;20127;-57
2023/06/14 02:22:30;;;;;;;27.23;12.85;;;;;;;;;;6262648;28;20203;-57
2023/06/14 02:25:31;;;;;;;32.70;13.32;;;;;;;;;;6260478;28;20056;-56
2023/06/14 02:28:32;;;;;;;30.50;12.75;;;;;;;;;;6257770;28;20574;-56
2023/06/14 02:31:32;;;;;;;28.70;11.98;;;;;;;;;;6254933;28;20041;-57
2023/06/14 02:34:34;;;;;;;29.75;12.95;;;;;;;;;;6260280;28;20041;-57
2023/06/14 02:37:35;;;;;;;25.48;11.57;;;;;;;;;;6257319;28;20056;-56
2023/06/14 02:40:35;;;;;;;27.98;11.43;;;;;;;;;;6258921;28;20060;-59
2023/06/14 02:43:36;;;;;;;24.55;11.32;;;;;;;;;;6261244;28;20396;-59
2023/06/14 02:46:37;;;;;;;33.85;14.75;;;;;;;;;;6256224;28;20480;-57
2023/06/14 02:49:37;;;;;;;30.88;12.95;;;;;;;;;;6255338;28;20053;-58
2023/06/14 02:52:38;;;;;;;32.13;14.30;;;;;;;;;;6254142;28;20053;-58
2023/06/14 02:55:39;;;;;;;32.55;13.55;;;;;;;;;;6255033;28;20045;-57
2023/06/14 02:58:40;;;;;;;31.13;12.83;;;;;;;;;;6251275;28;20052;-57
2023/06/14 03:01:41;;;;;;;38.72;14.82;;;;;;;;;;6259622;28;20041;-57
2023/06/14 03:04:44;;;;;;;32.95;14.75;;;;;;;;;;6260733;28;20056;-56
2023/06/14 03:07:45;;;;;;;32.17;14.65;;;;;;;;;;6252054;28;20092;-57
2023/06/14 03:10:46;;;;;;;39.03;14.68;;;;;;;;;;6256088;28;20041;-57
2023/06/14 03:13:47;;;;;;;37.70;14.60;;;;;;;;;;6253687;28;20041;-57
2023/06/14 03:16:50;;;;;;;33.53;14.63;;;;;;;;;;6255115;28;20041;-58
2023/06/14 03:19:50;;;;;;;33.03;14.50;;;;;;;;;;6255848;28;21292;-55
2023/06/14 03:22:51;;;;;;;31.42;14.02;;;;;;;;;;6260542;28;20064;-58
2023/06/14 03:25:52;;;;;;;33.88;14.32;;;;;;;;;;6262471;28;20049;-55
2023/06/14 03:28:53;;;;;;;32.40;14.23;;;;;;;;;;6260719;28;20135;-55
2023/06/14 03:32:00;;;;;;;32.22;13.88;;;;;;;;;;6260562;28;20488;-57
2023/06/14 03:35:00;;;;;;;30.60;13.20;;;;;;;;;;6262890;28;20045;-57
2023/06/14 03:38:02;;;;;;;30.02;13.23;;;;;;;;;;6258441;28;20493;-57
2023/06/14 03:41:03;;;;;;;28.83;12.68;;;;;;;;;;6259815;28;20047;-58
2023/06/14 03:44:03;;;;;;;27.33;12.77;;;;;;;;;;6264745;28;20404;-58
2023/06/14 03:47:04;;;;;;;25.05;12.15;;;;;;;;;;6259983;28;20033;-55
2023/06/14 03:50:05;;;;;;;24.40;12.25;;;;;;;;;;6263652;28;20052;-57
2023/06/14 03:53:06;;;;;;;24.85;12.27;;;;;;;;;;6259479;28;20807;-58
2023/06/14 03:56:07;;;;;;;25.80;12.60;;;;;;;;;;6261814;28;20045;-57
2023/06/14 03:59:07;;;;;;;25.10;12.52;;;;;;;;;;6256970;28;20518;-58
2023/06/14 04:02:09;;;;;;;26.98;11.48;;;;;;;;;;6260317;28;20048;-59
2023/06/14 04:05:10;;;;;;;27.80;13.27;;;;;;;;;;6260369;28;20151;-55
2023/06/14 04:08:10;;;;;;;26.20;12.55;;;;;;;;;;6261715;28;20041;-57
2023/06/14 04:11:11;;;;;;;32.72;13.43;;;;;;;;;;6257647;28;20147;-58
2023/06/14 04:14:12;;;;;;;25.33;13.25;;;;;;;;;;6257544;28;20107;-56
2023/06/14 04:17:13;;;;;;;28.73;13.32;;;;;;;;;;6260509;28;20625;-58
2023/06/14 04:20:14;;;;;;;27.45;13.65;;;;;;;;;;6254950;28;20041;-58
2023/06/14 04:23:19;;;;;;;26.45;13.02;;;;;;;;;;6256000;28;20107;-57
2023/06/14 04:26:23;;;;;;;28.85;13.13;;;;;;;;;;6258423;28;20057;-58
2023/06/14 04:29:26;;;;;;;27.13;12.45;;;;;;;;;;6253608;28;20044;-56
2023/06/14 04:32:27;;;;;;;22.58;11.90;;;;;;;;;;6255510;28;20041;-56
2023/06/14 04:35:28;;;;;;;24.63;12.50;;;;;;;;;;6261646;28;20426;-58
2023/06/14 04:38:31;;;;;;;25.55;12.05;;;;;;;;;;6259753;28;20041;-56
2023/06/14 04:41:32;;;;;;;27.92;13.18;;;;;;;;;;6273557;28;20133;-55
2023/06/14 04:44:33;;;;;;;25.70;12.77;;;;;;;;;;6253450;28;20053;-58
2023/06/14 04:47:37;;;;;;;33.17;14.57;;;;;;;;;;6247954;28;20115;-56
2023/06/14 04:50:39;;;;;;;29.73;13.50;;;;;;;;;;6255620;28;20052;-57
2023/06/14 04:53:41;;;;;;;31.60;13.38;;;;;;;;;;6256836;28;20056;-58
2023/06/14 04:56:42;;;;;;;32.35;14.32;;;;;;;;;;6257063;28;20459;-56
2023/06/14 04:59:44;;;;;;;29.83;14.05;;;;;;;;;;6253396;28;20056;-56
2023/06/14 05:02:44;;;;;;;30.85;13.93;;;;;;;;;;6257521;28;20450;-57
2023/06/14 05:05:45;;;;;;;28.20;14.35;;;;;;;;;;6256346;28;20086;-59
2023/06/14 05:08:45;;;;;;;31.35;14.05;;;;;;;;;;6254500;28;20049;-55
2023/06/14 05:11:47;;;;;;;31.50;14.43;;;;;;;;;;6254276;28;20416;-58
2023/06/14 05:14:47;;;;;;;32.57;14.57;;;;;;;;;;6252027;28;20045;-55
2023/06/14 05:17:54;;;;;;;31.38;14.20;;;;;;;;;;6253759;28;20083;-59
2023/06/14 05:20:54;;;;;;;35.90;14.20;;;;;;;;;;6258992;28;20483;-58
2023/06/14 05:23:55;;;;;;;33.45;13.95;;;;;;;;;;6256410;28;20053;-52
2023/06/14 05:26:56;;;;;;;29.00;13.25;;;;;;;;;;6257480;28;20036;-58
2023/06/14 05:29:58;;;;;;;31.55;14.68;;;;;;;;;;6253831;28;20033;-56
2023/06/14 05:32:59;;;;;;;29.98;13.85;;;;;;;;;;6256743;28;20137;-56
2023/06/14 05:35:59;;;;;;;27.90;13.68;;;;;;;;;;6252698;28;20049;-59
2023/06/14 05:39:02;;;;;;;27.35;13.82;;;;;;;;;;6254108;28;20044;-58
2023/06/14 05:42:04;;;;;;;29.75;13.63;;;;;;;;;;6255086;28;20041;-58
2023/06/14 05:45:05;;;;;;;32.42;14.13;;;;;;;;;;6252441;28;20400;-58
2023/06/14 05:48:06;;;;;;;28.92;14.13;;;;;;;;;;6252315;28;21778;-57
2023/06/14 05:51:08;;;;;;;30.95;13.40;;;;;;;;;;6253470;28;20072;-58
2023/06/14 05:54:09;;;;;;;29.48;14.20;;;;;;;;;;6252638;28;20309;-58
2023/06/14 05:57:10;;;;;;;30.63;15.02;;;;;;;;;;6252491;28;20065;-59
2023/06/14 06:00:14;;;;;;;28.17;13.73;;;;;;;;;;6254184;28;20144;-58
2023/06/14 06:03:14;;;;;;;31.73;14.32;;;;;;;;;;6255105;28;20045;-56
2023/06/14 06:06:16;;;;;;;32.53;14.85;;;;;;;;;;6256829;28;20600;-57
2023/06/14 06:09:17;;;;;;;33.45;15.50;;;;;;;;;;6251492;28;20049;-58
2023/06/14 06:12:17;;;;;;;30.85;14.77;;;;;;;;;;6253818;28;20091;-56
2023/06/14 06:15:18;;;;;;;32.95;14.93;;;;;;;;;;6255039;28;20047;-58
2023/06/14 06:18:19;;;;;;;30.58;14.98;;;;;;;;;;6252657;28;21120;-58
2023/06/14 06:21:19;;;;;;;32.80;15.48;;;;;;;;;;6254271;28;20045;-58
2023/06/14 06:24:20;;;;;;;31.27;15.68;;;;;;;;;;6254230;28;20085;-58
2023/06/14 06:27:21;;;;;;;33.33;15.82;;;;;;;;;;6258697;28;20678;-58
2023/06/14 06:30:22;;;;;;;36.58;15.63;;;;;;;;;;6249771;28;20050;-58
2023/06/14 06:33:22;;;;;;;30.25;15.38;;;;;;;;;;6252670;28;20049;-58
2023/06/14 06:36:23;;;;;;;29.98;15.40;;;;;;;;;;6250748;28;20044;-57
2023/06/14 06:39:23;;;;;;;34.80;16.15;;;;;;;;;;6250789;28;20045;-58
2023/06/14 06:42:24;;;;;;;29.10;15.27;;;;;;;;;;6255681;28;20057;-57
2023/06/14 06:45:25;;;;;;;32.53;16.85;;;;;;;;;;6252679;28;20412;-55
2023/06/14 06:48:25;;;;;;;30.30;15.60;;;;;;;;;;6252333;28;20439;-57
2023/06/14 06:51:26;;;;;;;29.60;15.30;;;;;;;;;;6252914;28;20049;-57
2023/06/14 06:54:27;;;;;;;36.80;16.23;;;;;;;;;;6252198;28;20049;-58
2023/06/14 06:57:29;;;;;;;33.75;16.45;;;;;;;;;;6259872;28;20049;-58
2023/06/14 07:00:29;;;;;;;;;;;;;;;;;;6256903;28;20488;-58
2023/06/14 07:03:30;;;;;;;29.70;14.48;;;;;;;;;;6257070;28;19928;-58
2023/06/14 07:06:31;;;;;;;30.25;14.77;;;;;;;;;;6259623;28;20048;-59
2023/06/14 07:09:31;;;;;;;30.80;16.30;;;;;;;;;;6258313;28;20396;-59
2023/06/14 07:12:33;;;;;;;27.60;13.02;;;;;;;;;;6256280;28;20041;-58
2023/06/14 07:15:34;;;;;;;22.88;12.55;;;;;;;;;;6256470;28;20095;-59
2023/06/14 07:18:37;;;;;;;25.87;13.00;;;;;;;;;;6254205;28;20463;-59
2023/06/14 07:21:38;;;;;;;18.20;10.60;;;;;;;;;;6256563;28;20543;-59
2023/06/14 07:24:40;;;;;;;18.60;10.23;;;;;;;;;;6256775;28;20132;-58
2023/06/14 07:27:41;;;;;;;18.40;8.77;;;;;;;;;;6254016;28;20475;-59
2023/06/14 07:30:42;;;;;;;17.25;8.73;;;;;;;;;;6255542;28;20049;-58
2023/06/14 07:33:43;;;;;;;13.77;8.10;;;;;;;;;;6259107;28;20052;-57
2023/06/14 07:36:44;;;;;;;14.05;8.10;;;;;;;;;;6256429;28;20132;-58
2023/06/14 07:39:45;;;;;;;13.70;7.45;;;;;;;;;;6253053;28;20089;-59
2023/06/14 07:42:46;;;;;;;15.90;8.20;;;;;;;;;;6254392;28;20236;-58
2023/06/14 07:45:46;;;;;;;14.73;7.70;;;;;;;;;;6254732;28;20041;-58
2023/06/14 07:48:47;;;;;;;18.15;9.15;;;;;;;;;;6253070;28;20132;-58
2023/06/14 07:51:48;;;;;;;18.70;10.27;;;;;;;;;;6258141;28;20040;-56
2023/06/14 07:54:48;;;;;;;17.25;9.48;;;;;;;;;;6257719;28;20367;-57
2023/06/14 07:57:49;;;;;;;17.73;9.43;;;;;;;;;;6254760;28;20113;-56
2023/06/14 08:00:51;;;;;;;14.98;7.78;;;;;;;;;;6260053;28;20135;-56
2023/06/14 08:03:51;;;;;;;12.37;7.13;;;;;;;;;;6256239;28;20454;-58
2023/06/14 08:06:52;;;;;;;15.57;7.30;;;;;;;;;;6256580;28;20400;-58
2023/06/14 08:09:52;;;;;;;10.32;6.40;;;;;;;;;;6253735;28;20060;-55
2023/06/14 08:12:53;;;;;;;14.57;7.10;;;;;;;;;;6255355;28;20037;-57
2023/06/14 08:15:54;;;;;;;14.45;6.70;;;;;;;;;;6263032;28;20048;-58
2023/06/14 08:18:56;;;;;;;9.93;5.78;;;;;;;;;;6260229;28;20041;-58
2023/06/14 08:21:57;;;;;;;9.68;6.10;;;;;;;;;;6257708;28;20041;-58
2023/06/14 08:24:57;;;;;;;10.73;6.80;;;;;;;;;;6256465;28;20205;-57
2023/06/14 08:27:59;;;;;;;12.68;6.45;;;;;;;;;;6253714;28;20049;-58
2023/06/14 08:31:01;;;;;;;11.95;6.55;;;;;;;;;;6254207;28;20041;-59
2023/06/14 08:34:02;;;;;;;8.73;5.55;;;;;;;;;;6255364;28;20496;-58
2023/06/14 08:37:03;;;;;;;11.55;6.78;;;;;;;;;;6255637;28;20140;-58
2023/06/14 08:40:05;;;;;;;10.90;5.90;;;;;;;;;;6253061;28;20045;-58
2023/06/14 08:43:07;;;;;;;10.15;6.10;;;;;;;;;;6256695;28;20049;-59
2023/06/14 08:46:10;;;;;;;11.00;6.25;;;;;;;;;;6259798;28;20071;-59
2023/06/14 08:49:12;;;;;;;9.82;6.18;;;;;;;;;;6255748;28;20401;-59
2023/06/14 08:52:13;;;;;;;9.53;6.13;;;;;;;;;;6255098;28;20045;-57
2023/06/14 08:55:14;;;;;;;9.35;6.10;;;;;;;;;;6255891;28;20103;-59
2023/06/14 08:58:15;;;;;;;8.10;5.40;;;;;;;;;;6253609;28;20041;-58
2023/06/14 09:01:17;;;;;;;9.27;5.70;;;;;;;;;;6255947;28;20053;-58
2023/06/14 09:04:19;;;;;;;;;;;;;;;;;;6255675;28;20114;-59
2023/06/14 09:07:20;;;;;;;7.57;4.97;;;;;;;;;;6253832;28;20518;-58
2023/06/14 09:10:22;;;;;;;10.03;5.07;;;;;;;;;;6252725;28;20048;-58
2023/06/14 09:13:22;;;;;;;9.15;5.60;;;;;;;;;;6254592;28;20522;-59
2023/06/14 09:16:23;;;;;;;10.13;6.47;;;;;;;;;;6254605;28;20073;-59
2023/06/14 09:19:24;;;;;;;9.60;6.13;;;;;;;;;;6253330;28;20041;-59
2023/06/14 09:22:25;;;;;;;12.15;7.18;;;;;;;;;;6255221;28;20137;-58
2023/06/14 09:25:27;;;;;;;12.10;7.38;;;;;;;;;;6255324;28;20095;-57
2023/06/14 09:28:27;;;;;;;11.75;7.80;;;;;;;;;;6252621;28;20123;-55
2023/06/14 09:31:31;;;;;;;13.93;7.67;;;;;;;;;;6252696;28;20449;-58
2023/06/14 09:34:33;;;;;;;14.18;7.97;;;;;;;;;;6252860;28;20167;-57
2023/06/14 09:37:38;;;;;;;14.95;8.55;;;;;;;;;;6252181;28;20523;-59
2023/06/14 09:40:38;;;;;;;12.18;8.35;;;;;;;;;;6253700;28;20110;-60
2023/06/14 09:43:39;;;;;;;15.68;9.63;;;;;;;;;;6251708;28;20061;-57
2023/06/14 09:46:40;;;;;;;16.00;9.38;;;;;;;;;;6253371;28;20041;-58
2023/06/14 09:49:40;;;;;;;15.65;9.00;;;;;;;;;;6251673;28;20056;-57
2023/06/14 09:52:44;;;;;;;16.73;9.95;;;;;;;;;;6253275;28;20051;-58
2023/06/14 09:55:45;;;;;;;16.05;10.35;;;;;;;;;;6252428;28;20407;-57
2023/06/14 09:58:46;;;;;;;15.25;9.77;;;;;;;;;;6252127;28;20037;-59
2023/06/14 10:01:48;;;;;;;17.27;10.27;;;;;;;;;;6254461;28;20518;-58
2023/06/14 10:05:03;;;;;;;17.70;10.88;;;;;;;;;;6254647;28;20301;-58
2023/06/14 10:08:08;;;;;;;16.73;10.27;;;;;;;;;;6251429;28;20147;-54
2023/06/14 10:11:09;;;;;;;18.70;11.23;;;;;;;;;;6249194;28;20378;-59
2023/06/14 10:14:11;;;;;;;15.43;9.37;;;;;;;;;;6252974;28;20871;-58
2023/06/14 10:17:17;;;;;;;;;;;;;;;;;;6253754;28;20040;-59
2023/06/14 10:20:48;;;;;;;14.45;9.38;;;;;;;;;;6251080;28;19921;-58
2023/06/14 10:23:50;;;;;;;13.13;7.93;;;;;;;;;;6250840;28;20076;-58
2023/06/14 10:26:51;;;;;;;;;;;;;;;;;;6252025;28;20227;-58
2023/06/14 10:29:58;;;;;;;11.00;7.53;;;;;;;;;;6250768;28;19924;-58
2023/06/14 10:33:07;;;;;;;11.13;7.05;;;;;;;;;;6249584;28;20049;-59
2023/06/14 10:36:28;;;;;;;11.27;7.70;;;;;;;;;;6251747;28;20488;-59
2023/06/14 10:39:29;;;;;;;13.57;8.48;;;;;;;;;;6257605;28;20041;-59
2023/06/14 10:42:33;;;;;;;11.55;7.97;;;;;;;;;;6251857;28;20140;-58
2023/06/14 10:45:33;;;;;;;13.60;9.40;;;;;;;;;;6250638;28;20412;-59
2023/06/14 10:48:40;;;;;;;13.07;8.88;;;;;;;;;;6252402;28;20252;-59
2023/06/14 10:51:47;;;;;;;12.77;7.72;;;;;;;;;;6254992;28;20041;-59
2023/06/14 10:55:22;;;;;;;10.75;6.85;;;;;;;;;;6251858;28;20592;-58
2023/06/14 10:58:23;;;;;;;12.82;8.48;;;;;;;;;;6250075;28;20052;-59
2023/06/14 11:01:38;;;;;;;13.68;8.13;;;;;;;;;;6252143;28;20057;-60
2023/06/14 11:04:52;;;;;;;12.13;7.53;;;;;;;;;;6252106;28;20076;-58
2023/06/14 11:08:19;;;;;;;13.63;7.80;;;;;;;;;;6251858;28;20040;-59
2023/06/14 11:11:23;;;;;;;12.60;7.57;;;;;;;;;;6249592;28;20353;-59
2023/06/14 11:14:23;;;;;;;11.32;7.35;;;;;;;;;;6251904;28;20049;-59
2023/06/14 11:17:25;;;;;;;12.05;7.95;;;;;;;;;;6251520;28;20049;-59
2023/06/14 11:20:26;;;;;;;10.43;6.70;;;;;;;;;;6249031;28;20045;-59
2023/06/14 11:23:27;;;;;;;9.82;5.78;;;;;;;;;;6253532;28;20411;-59
2023/06/14 11:26:33;;;;;;;8.38;4.63;;;;;;;;;;6251360;28;20045;-59
2023/06/14 11:29:34;;;;;;;9.07;4.93;;;;;;;;;;6248519;28;20098;-59
2023/06/14 11:32:35;;;;;;;9.48;5.25;;;;;;;;;;6250399;28;20037;-59
2023/06/14 11:35:36;;;;;;;8.73;4.72;;;;;;;;;;6250156;28;20120;-59
2023/06/14 11:38:37;;;;;;;8.43;4.72;;;;;;;;;;6250473;28;20041;-59
2023/06/14 11:41:40;;;;;;;7.32;4.78;;;;;;;;;;6254649;28;20091;-59
2023/06/14 11:44:41;;;;;;;7.38;5.03;;;;;;;;;;6257167;28;20492;-59
2023/06/14 11:47:42;;;;;;;9.55;5.95;;;;;;;;;;6258223;28;20051;-59
2023/06/14 11:50:42;;;;;;;9.18;5.55;;;;;;;;;;6255517;28;20059;-59
2023/06/14 11:53:43;;;;;;;8.30;5.72;;;;;;;;;;6255974;28;20041;-59
2023/06/14 11:56:44;;;;;;;8.10;5.40;;;;;;;;;;6258189;28;20041;-59
2023/06/14 11:59:46;;;;;;;7.68;4.72;;;;;;;;;;6253321;28;20114;-59
2023/06/14 12:02:57;;;;;;;6.55;3.67;;;;;;;;;;6258054;28;20524;-59
2023/06/14 12:06:08;;;;;;;5.93;4.07;;;;;;;;;;6256832;28;20044;-59
2023/06/14 12:09:13;;;;;;;5.80;3.47;;;;;;;;;;6253300;28;20489;-59
2023/06/14 12:12:14;;;;;;;5.30;3.70;;;;;;;;;;6256784;28;20132;-59
2023/06/14 12:15:15;;;;;;;6.40;3.97;;;;;;;;;;6256952;28;20052;-59
2023/06/14 12:18:16;;;;;;;6.90;4.30;;;;;;;;;;6254545;28;20047;-59
2023/06/14 12:21:16;;;;;;;6.07;4.27;;;;;;;;;;6255955;28;20044;-59
2023/06/14 12:24:17;;;;;;;6.80;4.30;;;;;;;;;;6260713;28;20049;-57
2023/06/14 12:27:23;;;;;;;6.85;4.18;;;;;;;;;;6257039;28;20402;-59
2023/06/14 12:30:24;;;;;;;7.47;4.43;;;;;;;;;;6256765;28;20412;-59
2023/06/14 12:33:25;;;;;;;8.23;4.53;;;;;;;;;;6252620;28;20933;-59
2023/06/14 12:36:26;;;;;;;6.50;4.47;;;;;;;;;;6254984;28;20435;-59
2023/06/14 12:39:26;;;;;;;11.00;4.50;;;;;;;;;;6252904;28;20044;-59
2023/06/14 12:42:27;;;;;;;7.20;4.20;;;;;;;;;;6250946;28;20085;-59
2023/06/14 12:45:28;;;;;;;9.52;4.07;;;;;;;;;;6254467;28;20041;-59
2023/06/14 12:48:30;;;;;;;6.70;4.07;;;;;;;;;;6253683;28;20047;-60
2023/06/14 12:51:31;;;;;;;6.00;3.97;;;;;;;;;;6253702;28;20136;-59
2023/06/14 12:54:32;;;;;;;6.63;4.20;;;;;;;;;;6253311;28;20148;-59
2023/06/14 12:57:32;;;;;;;5.97;3.90;;;;;;;;;;6254315;28;20049;-59
2023/06/14 13:00:33;;;;;;;7.50;4.40;;;;;;;;;;6256594;28;20037;-59
2023/06/14 13:03:34;;;;;;;8.63;4.63;;;;;;;;;;6265514;28;20045;-60
2023/06/14 13:06:35;;;;;;;6.70;4.53;;;;;;;;;;6262372;28;20654;-59
2023/06/14 13:09:35;;;;;;;9.73;4.90;;;;;;;;;;6259583;28;20049;-60
2023/06/14 13:12:36;;;;;;;9.90;4.93;;;;;;;;;;6262576;28;20071;-59
2023/06/14 13:15:36;;;;;;;7.57;3.83;;;;;;;;;;6256747;28;20057;-59
2023/06/14 13:18:37;;;;;;;7.37;3.70;;;;;;;;;;6258551;28;20072;-60
2023/06/14 13:21:38;;;;;;;7.83;3.80;;;;;;;;;;6259308;28;20041;-60
2023/06/14 13:24:38;;;;;;;8.03;3.73;;;;;;;;;;6260394;28;20452;-60
2023/06/14 13:27:39;;;;;;;7.97;4.03;;;;;;;;;;6260599;28;20049;-60
2023/06/14 13:30:40;;;;;;;7.27;3.90;;;;;;;;;;6258195;28;20411;-60
2023/06/14 13:33:41;;;;;;;7.77;3.70;;;;;;;;;;6260632;28;20822;-60
2023/06/14 13:36:42;;;;;;;6.88;4.00;;;;;;;;;;6263856;28;20516;-60
2023/06/14 13:39:42;;;;;;;7.23;3.73;;;;;;;;;;6257368;28;20111;-60
2023/06/14 13:42:43;;;;;;;7.87;4.33;;;;;;;;;;6259977;28;20080;-60
2023/06/14 13:45:44;;;;;;;8.37;4.70;;;;;;;;;;6261472;28;20052;-59
2023/06/14 13:48:47;;;;;;;9.90;5.40;;;;;;;;;;6261720;28;20041;-59
2023/06/14 13:51:48;;;;;;;17.10;7.07;;;;;;;;;;6257697;28;20415;-60
2023/06/14 13:54:48;;;;;;;21.43;8.30;;;;;;;;;;6249328;28;20049;-59
2023/06/14 13:57:49;;;;;;;18.73;10.17;;;;;;;;;;6250429;28;20049;-59
2023/06/14 14:00:50;;;;;;;22.70;10.52;;;;;;;;;;6246619;28;20284;-59
2023/06/14 14:03:50;;;;;;;25.30;10.88;;;;;;;;;;6247177;28;20453;-57
2023/06/14 14:06:51;;;;;;;20.90;8.57;;;;;;;;;;6249759;28;20527;-59
2023/06/14 14:09:53;;;;;;;16.75;7.43;;;;;;;;;;6250808;28;20061;-59
2023/06/14 14:12:54;;;;;;;14.93;6.72;;;;;;;;;;6247735;28;20140;-59
2023/06/14 14:15:55;;;;;;;14.90;7.30;;;;;;;;;;6248250;28;20139;-59
2023/06/14 14:18:55;;;;;;;21.00;10.10;;;;;;;;;;6250428;28;20462;-59
2023/06/14 14:21:56;;;;;;;25.47;11.27;;;;;;;;;;6252501;28;20052;-59
2023/06/14 14:24:57;;;;;;;24.03;12.13;;;;;;;;;;6250814;28;20053;-59
2023/06/14 14:27:57;;;;;;;26.37;11.70;;;;;;;;;;6247588;28;20474;-59
2023/06/14 14:30:59;;;;;;;23.27;10.83;;;;;;;;;;6250051;28;20045;-60
2023/06/14 14:33:59;;;;;;;22.15;10.52;;;;;;;;;;6253826;28;20060;-59
2023/06/14 14:37:00;;;;;;;20.03;10.03;;;;;;;;;;6250832;28;20045;-59
2023/06/14 14:40:01;;;;;;;19.93;9.80;;;;;;;;;;6251397;28;20040;-58
2023/06/14 14:43:01;;;;;;;20.98;8.45;;;;;;;;;;6253125;28;20175;-59
2023/06/14 14:46:02;;;;;;;16.52;8.02;;;;;;;;;;6252471;28;20381;-59
2023/06/14 14:49:03;;;;;;;16.97;8.03;;;;;;;;;;6252141;28;20061;-59
2023/06/14 14:52:04;;;;;;;16.60;7.78;;;;;;;;;;6250938;28;20052;-59
2023/06/14 14:55:05;;;;;;;14.97;7.57;;;;;;;;;;6249196;28;20037;-59
2023/06/14 14:58:06;;;;;;;11.30;6.85;;;;;;;;;;6255315;28;20060;-59
2023/06/14 15:01:07;;;;;;;12.50;5.57;;;;;;;;;;6252932;28;20060;-59
2023/06/14 15:04:07;;;;;;;11.83;5.40;;;;;;;;;;6249515;28;20049;-59
2023/06/14 15:07:09;;;;;;;9.87;5.10;;;;;;;;;;6243742;28;20052;-60
2023/06/14 15:10:09;;;;;;;12.27;5.67;;;;;;;;;;6244361;28;20126;-58
2023/06/14 15:13:10;;;;;;;10.13;5.80;;;;;;;;;;6245662;28;20053;-59
2023/06/14 15:16:11;;;;;;;10.23;5.80;;;;;;;;;;6247113;28;21156;-59
2023/06/14 15:19:11;;;;;;;11.07;6.27;;;;;;;;;;6249913;28;20143;-58
2023/06/14 15:22:12;;;;;;;12.00;6.20;;;;;;;;;;6248752;28;20044;-58
2023/06/14 15:25:13;;;;;;;13.20;6.68;;;;;;;;;;6248715;28;20140;-59
2023/06/14 15:28:14;;;;;;;15.00;6.83;;;;;;;;;;6251796;28;20041;-59
2023/06/14 15:31:15;;;;;;;13.07;6.33;;;;;;;;;;6251138;28;20063;-58
2023/06/14 15:34:15;;;;;;;17.47;8.23;;;;;;;;;;6249879;28;20056;-59
2023/06/14 15:37:16;;;;;;;14.10;6.77;;;;;;;;;;6249753;28;20045;-58
2023/06/14 15:40:17;;;;;;;13.27;6.53;;;;;;;;;;6249373;28;20045;-59
2023/06/14 15:43:18;;;;;;;10.80;5.70;;;;;;;;;;6251260;28;20488;-58
2023/06/14 15:46:21;;;;;;;11.47;5.97;;;;;;;;;;6255129;28;20040;-58
2023/06/14 15:49:21;;;;;;;11.70;6.40;;;;;;;;;;6257882;28;20041;-59
2023/06/14 15:52:22;;;;;;;12.20;7.10;;;;;;;;;;6258717;28;20048;-59
2023/06/14 15:55:23;;;;;;;13.60;8.13;;;;;;;;;;6257526;28;20102;-60
2023/06/14 15:58:23;;;;;;;18.70;9.37;;;;;;;;;;6258321;28;20880;-59
2023/06/14 16:01:24;;;;;;;16.40;9.73;;;;;;;;;;6257342;28;20037;-59
2023/06/14 16:04:24;;;;;;;15.23;9.50;;;;;;;;;;6257128;28;20467;-57
2023/06/14 16:07:25;;;;;;;15.00;8.97;;;;;;;;;;6257904;28;20504;-58
2023/06/14 16:10:26;;;;;;;16.03;8.83;;;;;;;;;;6257490;28;20084;-59
2023/06/14 16:13:27;;;;;;;14.38;7.63;;;;;;;;;;6258739;28;20139;-59
2023/06/14 16:16:28;;;;;;;15.00;8.47;;;;;;;;;;6256563;28;20056;-60
2023/06/14 16:19:29;;;;;;;13.80;8.23;;;;;;;;;;6257117;28;20147;-59
2023/06/14 16:22:29;;;;;;;19.98;10.25;;;;;;;;;;6258585;28;20301;-59
2023/06/14 16:25:30;;;;;;;18.10;9.83;;;;;;;;;;6256499;28;20534;-60
2023/06/14 16:28:34;;;;;;;17.60;9.57;;;;;;;;;;6255880;28;20045;-60
2023/06/14 16:31:35;;;;;;;16.02;8.80;;;;;;;;;;6258709;28;20130;-60
2023/06/14 16:34:35;;;;;;;14.23;8.17;;;;;;;;;;6253632;28;20056;-59
2023/06/14 16:37:36;;;;;;;16.00;8.43;;;;;;;;;;6256718;28;20045;-67
2023/06/14 16:40:37;;;;;;;16.63;9.43;;;;;;;;;;6256062;28;20063;-60
2023/06/14 16:43:37;;;;;;;12.80;7.90;;;;;;;;;;6256443;28;20569;-59
2023/06/14 16:46:38;;;;;;;10.83;6.43;;;;;;;;;;6253587;28;20059;-57
2023/06/14 16:49:39;;;;;;;12.00;6.93;;;;;;;;;;6254867;28;20048;-60
2023/06/14 16:52:39;;;;;;;12.40;7.10;;;;;;;;;;6258047;28;20053;-60
2023/06/14 16:55:41;;;;;;;11.33;6.63;;;;;;;;;;6253174;28;20540;-60
2023/06/14 16:58:41;;;;;;;13.32;6.80;;;;;;;;;;6262909;28;20514;-60
2023/06/14 17:01:42;;;;;;;13.43;7.43;;;;;;;;;;6261226;28;20124;-60
2023/06/14 17:04:43;;;;;;;13.10;7.03;;;;;;;;;;6258633;28;20420;-60
2023/06/14 17:07:43;;;;;;;13.30;7.97;;;;;;;;;;6256400;28;20667;-59
2023/06/14 17:10:45;;;;;;;12.03;7.27;;;;;;;;;;6263232;28;20516;-60
2023/06/14 17:13:45;;;;;;;12.90;7.28;;;;;;;;;;6261808;28;20044;-60
2023/06/14 17:16:46;;;;;;;13.73;7.47;;;;;;;;;;6257988;28;20052;-60
2023/06/14 17:19:46;;;;;;;16.77;8.43;;;;;;;;;;6257230;28;20504;-60
2023/06/14 17:22:47;;;;;;;15.33;8.67;;;;;;;;;;6258694;28;20457;-60
2023/06/14 17:25:48;;;;;;;15.50;8.95;;;;;;;;;;6254210;28;20131;-61
2023/06/14 17:28:49;;;;;;;20.10;10.33;;;;;;;;;;6250013;28;20044;-61
2023/06/14 17:31:49;;;;;;;16.10;9.27;;;;;;;;;;6260127;28;20047;-60
2023/06/14 17:34:50;;;;;;;17.57;8.73;;;;;;;;;;6255994;28;20049;-60
2023/06/14 17:37:51;;;;;;;13.50;8.53;;;;;;;;;;6258474;28;20041;-60
2023/06/14 17:40:51;;;;;;;14.40;9.20;;;;;;;;;;6259344;28;20490;-61
2023/06/14 17:43:52;;;;;;;13.83;8.87;;;;;;;;;;6247660;28;20053;-60
2023/06/14 17:46:52;;;;;;;14.03;8.43;;;;;;;;;;6261123;28;20060;-60
2023/06/14 17:49:53;;;;;;;14.57;8.60;;;;;;;;;;6256347;28;20319;-60
2023/06/14 17:52:54;;;;;;;12.77;8.37;;;;;;;;;;6260627;28;20389;-61